Time;durP1;ratioP1;P1;durP2;ratioP2;P2;SDS_P1;SDS_P2;PMS_P1;PMS_P2;Temp;Humidity;BMP_temperature;BMP_pressure;BME280_temperature;BME280_humidity;BME280_pressure;Samples;Min_cycle;Max_cycle;Signal;HPM_P1;HPM_P2
2022/05/06 00:01:46;;;;;;;15.52;13.80;;;;;;;;;;10525082;28;20461;-82
2022/05/06 00:06:47;;;;;;;15.40;13.20;;;;;;;;;;10524720;28;20397;-82
2022/05/06 00:11:51;;;;;;;14.82;13.02;;;;;;;;;;10524858;28;20408;-82
2022/05/06 00:16:54;;;;;;;16.02;13.38;;;;;;;;;;10522182;28;20420;-81
2022/05/06 00:21:56;;;;;;;15.10;13.45;;;;;;;;;;10522936;28;20902;-82
2022/05/06 00:26:58;;;;;;;17.75;13.38;;;;;;;;;;10522990;28;20899;-81
2022/05/06 00:32:02;;;;;;;16.83;14.40;;;;;;;;;;10523713;28;20438;-81
2022/05/06 00:37:04;;;;;;;20.63;16.47;;;;;;;;;;10523948;28;20420;-81
2022/05/06 00:42:07;;;;;;;29.92;21.38;;;;;;;;;;10523705;28;20420;-82
2022/05/06 00:47:10;;;;;;;37.58;24.63;;;;;;;;;;10524045;28;20392;-82
2022/05/06 00:52:12;;;;;;;28.92;21.92;;;;;;;;;;10523351;28;20397;-82
2022/05/06 00:57:17;;;;;;;24.55;19.23;;;;;;;;;;10522090;28;20388;-82
2022/05/06 01:02:20;;;;;;;18.08;14.98;;;;;;;;;;10523061;28;21034;-82
2022/05/06 01:07:22;;;;;;;16.45;14.05;;;;;;;;;;10522755;28;20405;-82
2022/05/06 01:12:24;;;;;;;13.43;11.77;;;;;;;;;;10523381;28;20487;-82
2022/05/06 01:17:27;;;;;;;14.32;11.88;;;;;;;;;;10519961;28;20876;-82
2022/05/06 01:22:31;;;;;;;14.05;12.55;;;;;;;;;;10522231;28;20915;-82
2022/05/06 01:27:38;;;;;;;14.40;12.55;;;;;;;;;;10521939;28;20834;-82
2022/05/06 01:32:42;;;;;;;13.13;11.70;;;;;;;;;;10521528;28;20411;-83
2022/05/06 01:37:46;;;;;;;12.18;10.10;;;;;;;;;;10520216;28;20399;-82
2022/05/06 01:42:51;;;;;;;11.48;10.20;;;;;;;;;;10521119;28;20406;-81
2022/05/06 01:47:53;;;;;;;11.73;10.10;;;;;;;;;;10521460;28;20491;-82
2022/05/06 01:52:57;;;;;;;12.95;11.45;;;;;;;;;;10521256;28;20412;-82
2022/05/06 01:57:59;;;;;;;11.90;10.60;;;;;;;;;;10519025;28;20903;-81
2022/05/06 02:03:01;;;;;;;12.53;11.23;;;;;;;;;;10521545;28;20475;-81
2022/05/06 02:08:05;;;;;;;12.18;10.88;;;;;;;;;;10522466;28;20487;-81
2022/05/06 02:13:08;;;;;;;12.73;11.43;;;;;;;;;;10520318;28;20412;-82
2022/05/06 02:18:10;;;;;;;15.18;12.95;;;;;;;;;;10521056;28;20431;-81
2022/05/06 02:23:14;;;;;;;16.05;13.55;;;;;;;;;;10521541;28;20764;-82
2022/05/06 02:28:15;;;;;;;17.63;13.90;;;;;;;;;;10518101;28;20968;-82
2022/05/06 02:33:23;;;;;;;16.67;13.37;;;;;;;;;;10521906;28;20426;-82
2022/05/06 02:38:27;;;;;;;15.03;12.47;;;;;;;;;;10521732;28;20446;-80
2022/05/06 02:43:29;;;;;;;15.88;12.98;;;;;;;;;;10521818;28;20436;-82
2022/05/06 02:48:30;;;;;;;16.80;13.35;;;;;;;;;;10521948;28;20400;-82
2022/05/06 02:53:33;;;;;;;17.10;13.43;;;;;;;;;;10521438;28;20499;-82
2022/05/06 02:58:35;;;;;;;17.55;13.13;;;;;;;;;;10521417;28;20488;-82
2022/05/06 03:03:37;;;;;;;14.63;12.73;;;;;;;;;;10521901;28;20837;-82
2022/05/06 03:08:41;;;;;;;14.43;12.83;;;;;;;;;;10521467;28;20400;-82
2022/05/06 03:13:43;;;;;;;14.10;12.18;;;;;;;;;;10524692;28;20830;-82
2022/05/06 03:18:44;;;;;;;13.05;11.15;;;;;;;;;;10524514;28;20828;-81
2022/05/06 03:23:51;;;;;;;13.93;10.85;;;;;;;;;;10528620;28;21479;-82
2022/05/06 03:28:56;;;;;;;12.40;10.63;;;;;;;;;;10528326;28;20891;-81
2022/05/06 03:33:59;;;;;;;13.50;11.77;;;;;;;;;;10528186;28;20416;-80
2022/05/06 03:39:03;;;;;;;13.43;11.33;;;;;;;;;;10525371;28;20503;-81
2022/05/06 03:44:07;;;;;;;13.75;12.02;;;;;;;;;;10525883;28;20423;-81
2022/05/06 03:49:09;;;;;;;14.43;12.47;;;;;;;;;;10527847;28;20421;-81
2022/05/06 03:54:12;;;;;;;13.13;11.82;;;;;;;;;;10528617;28;20392;-82
2022/05/06 03:59:14;;;;;;;15.02;12.15;;;;;;;;;;10523714;28;20475;-80
2022/05/06 04:04:16;;;;;;;15.15;11.90;;;;;;;;;;10521484;28;20424;-82
2022/05/06 04:09:21;;;;;;;13.77;12.38;;;;;;;;;;10522598;28;20482;-82
2022/05/06 04:14:23;;;;;;;14.30;12.27;;;;;;;;;;10525713;28;20481;-83
2022/05/06 04:19:24;;;;;;;14.15;12.43;;;;;;;;;;10525210;28;20514;-82
2022/05/06 04:24:28;;;;;;;13.57;12.18;;;;;;;;;;10523906;28;20420;-82
2022/05/06 04:29:29;;;;;;;12.82;11.43;;;;;;;;;;10524426;28;20490;-82
2022/05/06 04:34:31;;;;;;;12.88;11.43;;;;;;;;;;10524089;28;20590;-80
2022/05/06 04:39:34;;;;;;;12.70;11.25;;;;;;;;;;10522777;28;20404;-82
2022/05/06 04:44:37;;;;;;;12.70;11.05;;;;;;;;;;10524171;28;20424;-81
2022/05/06 04:49:39;;;;;;;12.98;11.57;;;;;;;;;;10524214;28;20898;-83
2022/05/06 04:54:42;;;;;;;14.53;12.73;;;;;;;;;;10517129;28;20918;-81
2022/05/06 04:59:47;;;;;;;15.60;13.68;;;;;;;;;;10520093;28;20530;-81
2022/05/06 05:04:52;;;;;;;17.42;14.75;;;;;;;;;;10518450;28;20486;-82
2022/05/06 05:09:56;;;;;;;18.20;15.20;;;;;;;;;;10519438;28;20534;-82
2022/05/06 05:14:58;;;;;;;16.67;13.93;;;;;;;;;;10517885;28;20515;-80
2022/05/06 05:20:00;;;;;;;16.35;14.55;;;;;;;;;;10512252;28;20392;-81
2022/05/06 05:25:04;;;;;;;16.08;14.38;;;;;;;;;;10513028;28;20431;-81
2022/05/06 05:30:08;;;;;;;18.93;14.97;;;;;;;;;;10512706;28;20396;-83
2022/05/06 05:35:10;;;;;;;17.47;14.70;;;;;;;;;;10514133;28;20481;-81
2022/05/06 05:40:14;;;;;;;16.10;14.05;;;;;;;;;;10517534;28;20404;-82
2022/05/06 05:50:36;;;;;;;15.30;13.65;;;;;;;;;;10514840;28;20467;-81
2022/05/06 05:55:39;;;;;;;15.40;13.30;;;;;;;;;;10518577;28;21141;-83
2022/05/06 06:00:41;;;;;;;15.90;13.67;;;;;;;;;;10517222;28;20487;-82
2022/05/06 06:05:44;;;;;;;15.55;13.77;;;;;;;;;;10517875;28;20430;-83
2022/05/06 06:10:47;;;;;;;15.30;13.65;;;;;;;;;;10517250;28;20400;-83
2022/05/06 06:15:49;;;;;;;15.18;13.30;;;;;;;;;;10517836;28;20442;-83
2022/05/06 06:20:51;;;;;;;14.68;13.18;;;;;;;;;;10518936;28;20492;-82
2022/05/06 06:25:54;;;;;;;14.37;12.63;;;;;;;;;;10519339;28;20511;-81
2022/05/06 06:30:56;;;;;;;14.60;13.00;;;;;;;;;;10518720;28;20499;-83
2022/05/06 06:35:57;;;;;;;15.45;12.90;;;;;;;;;;10519490;28;20915;-81
2022/05/06 06:41:01;;;;;;;14.25;12.75;;;;;;;;;;10518938;28;20407;-82
2022/05/06 06:46:06;;;;;;;15.38;13.68;;;;;;;;;;10518940;28;20412;-83
2022/05/06 06:51:08;;;;;;;14.93;13.35;;;;;;;;;;10525910;28;20400;-83
2022/05/06 06:56:11;;;;;;;14.80;13.23;;;;;;;;;;10526634;28;20408;-82
2022/05/06 07:01:13;;;;;;;15.33;13.73;;;;;;;;;;10526897;28;20926;-83
2022/05/06 07:16:55;;;;;;;14.98;13.38;;;;;;;;;;10524154;28;20748;-83
2022/05/06 07:21:57;;;;;;;15.18;13.05;;;;;;;;;;10525758;28;20479;-82
2022/05/06 07:27:00;;;;;;;14.80;13.30;;;;;;;;;;10525436;28;20515;-83
2022/05/06 07:32:02;;;;;;;15.88;14.10;;;;;;;;;;10524895;28;20436;-83
2022/05/06 07:37:05;;;;;;;15.90;14.20;;;;;;;;;;10525230;28;20877;-82
2022/05/06 07:42:10;;;;;;;15.68;14.02;;;;;;;;;;10523818;28;20400;-82
2022/05/06 07:47:12;;;;;;;17.38;14.63;;;;;;;;;;10524221;28;20425;-82
2022/05/06 07:52:14;;;;;;;17.97;15.37;;;;;;;;;;10523960;28;20484;-83
2022/05/06 07:57:17;;;;;;;18.75;16.42;;;;;;;;;;10521622;28;20682;-82
2022/05/06 08:07:41;;;;;;;15.00;13.50;;;;;;;;;;10523651;28;20563;-83
2022/05/06 08:12:44;;;;;;;14.50;13.00;;;;;;;;;;10523700;28;20479;-82
2022/05/06 08:17:46;;;;;;;14.30;12.80;;;;;;;;;;10520274;28;20906;-82
2022/05/06 08:22:48;;;;;;;14.02;12.43;;;;;;;;;;10523507;28;20412;-83
2022/05/06 08:27:51;;;;;;;14.63;13.00;;;;;;;;;;10522680;28;20416;-83
2022/05/06 08:32:53;;;;;;;14.85;12.38;;;;;;;;;;10522466;28;20500;-81
2022/05/06 08:37:57;;;;;;;14.30;11.20;;;;;;;;;;10522729;28;20408;-83
2022/05/06 08:43:00;;;;;;;13.10;11.40;;;;;;;;;;10522216;28;20872;-83
2022/05/06 08:53:24;;;;;;;12.63;11.32;;;;;;;;;;10522458;28;20403;-83
2022/05/06 08:58:31;;;;;;;13.07;10.63;;;;;;;;;;10521634;28;20768;-83
2022/05/06 09:03:33;;;;;;;11.45;10.15;;;;;;;;;;10521147;28;20817;-81
2022/05/06 09:08:39;;;;;;;12.52;9.90;;;;;;;;;;10521852;28;20790;-83
2022/05/06 09:13:52;;;;;;;12.25;10.32;;;;;;;;;;10521308;28;20479;-82
2022/05/06 09:19:09;;;;;;;13.50;10.63;;;;;;;;;;10519341;28;20404;-82
2022/05/06 09:24:19;;;;;;;13.10;11.80;;;;;;;;;;10521020;28;20392;-83
2022/05/06 09:29:29;;;;;;;12.15;10.70;;;;;;;;;;10518080;28;20404;-83
2022/05/06 09:34:31;;;;;;;12.75;10.93;;;;;;;;;;10520437;28;20739;-82
2022/05/06 09:39:33;;;;;;;12.20;10.90;;;;;;;;;;10520427;28;20495;-82
2022/05/06 09:44:36;;;;;;;12.30;11.00;;;;;;;;;;10520123;28;20418;-82
2022/05/06 09:49:40;;;;;;;11.43;10.23;;;;;;;;;;10519760;28;20388;-81
2022/05/06 09:54:42;;;;;;;12.23;10.37;;;;;;;;;;10519140;28;20821;-81
2022/05/06 09:59:46;;;;;;;12.10;10.88;;;;;;;;;;10519515;28;20482;-80
2022/05/06 10:04:49;;;;;;;9.87;8.57;;;;;;;;;;10516238;28;20411;-79
2022/05/06 10:09:59;;;;;;;9.38;8.20;;;;;;;;;;10519342;28;20861;-82
2022/05/06 10:15:08;;;;;;;8.52;7.00;;;;;;;;;;10501062;28;20802;-83
2022/05/06 10:20:11;;;;;;;7.45;6.40;;;;;;;;;;10518529;28;20393;-83
2022/05/06 10:25:52;;;;;;;6.90;5.90;;;;;;;;;;10525749;28;20495;-82
2022/05/06 10:36:42;;;;;;;6.97;6.20;;;;;;;;;;10502320;28;20958;-83
2022/05/06 10:42:05;;;;;;;7.13;6.20;;;;;;;;;;10527824;28;20811;-83
2022/05/06 10:47:40;;;;;;;7.15;6.40;;;;;;;;;;10527343;28;20796;-80
2022/05/06 10:52:46;;;;;;;7.30;6.63;;;;;;;;;;10526997;28;20717;-82
2022/05/06 10:57:57;;;;;;;7.32;6.53;;;;;;;;;;10524020;28;20413;-83
2022/05/06 11:02:59;;;;;;;7.35;6.65;;;;;;;;;;10527196;28;20730;-82
2022/05/06 11:08:05;;;;;;;8.20;7.10;;;;;;;;;;10525944;28;20422;-82
2022/05/06 11:13:09;;;;;;;8.07;7.25;;;;;;;;;;10527405;28;20400;-82
2022/05/06 11:18:10;;;;;;;9.43;7.70;;;;;;;;;;10525827;28;20396;-82
2022/05/06 11:23:14;;;;;;;10.18;7.10;;;;;;;;;;10517837;28;20899;-82
2022/05/06 11:28:18;;;;;;;8.80;7.53;;;;;;;;;;10499473;28;20502;-83
2022/05/06 11:33:21;;;;;;;8.82;7.63;;;;;;;;;;10520925;28;20419;-82
2022/05/06 11:38:35;;;;;;;8.65;7.43;;;;;;;;;;10520348;28;20408;-82
2022/05/06 11:43:37;;;;;;;8.40;7.30;;;;;;;;;;10503895;28;20909;-83
2022/05/06 11:48:44;;;;;;;7.07;6.32;;;;;;;;;;10520909;28;20443;-83
2022/05/06 11:53:49;;;;;;;8.65;7.00;;;;;;;;;;10516612;28;20416;-82
2022/05/06 11:58:52;;;;;;;7.03;6.25;;;;;;;;;;10521788;28;20404;-83
2022/05/06 12:03:54;;;;;;;8.35;6.80;;;;;;;;;;10523279;28;20485;-80
2022/05/06 12:09:10;;;;;;;8.17;7.37;;;;;;;;;;10503977;28;20857;-82
2022/05/06 12:14:15;;;;;;;8.13;7.27;;;;;;;;;;10524648;28;20438;-83
2022/05/06 12:19:17;;;;;;;8.80;7.20;;;;;;;;;;10520758;28;20416;-80
2022/05/06 12:24:20;;;;;;;8.00;7.30;;;;;;;;;;10520152;28;20404;-81
2022/05/06 12:29:25;;;;;;;10.50;7.47;;;;;;;;;;10517868;28;20428;-81
2022/05/06 12:34:28;;;;;;;9.00;8.10;;;;;;;;;;10514849;28;20400;-82
2022/05/06 12:39:40;;;;;;;8.67;7.80;;;;;;;;;;10518686;28;20392;-81
2022/05/06 12:44:43;;;;;;;9.77;8.75;;;;;;;;;;10516712;28;20689;-79
2022/05/06 12:49:44;;;;;;;9.77;8.77;;;;;;;;;;10517104;28;20401;-82
2022/05/06 12:54:47;;;;;;;10.40;9.40;;;;;;;;;;10517457;28;20499;-82
2022/05/06 12:59:49;;;;;;;11.02;9.30;;;;;;;;;;10513650;28;20420;-81
2022/05/06 13:04:51;;;;;;;8.90;8.00;;;;;;;;;;10512610;28;20510;-82
2022/05/06 13:09:54;;;;;;;7.05;6.35;;;;;;;;;;10514211;28;20488;-81
2022/05/06 13:14:56;;;;;;;7.00;6.30;;;;;;;;;;10514424;28;20418;-80
2022/05/06 13:19:58;;;;;;;8.68;5.70;;;;;;;;;;10518402;28;20487;-81
2022/05/06 13:25:03;;;;;;;8.63;5.10;;;;;;;;;;10516073;28;20502;-80
2022/05/06 13:30:05;;;;;;;6.20;4.45;;;;;;;;;;10517551;28;20895;-82
2022/05/06 13:35:08;;;;;;;8.93;4.82;;;;;;;;;;10518409;28;20403;-80
2022/05/06 13:40:12;;;;;;;5.55;4.90;;;;;;;;;;10519944;28;20422;-82
2022/05/06 13:45:14;;;;;;;6.30;4.97;;;;;;;;;;10516941;28;20574;-82
2022/05/06 13:50:16;;;;;;;7.82;5.50;;;;;;;;;;10516761;28;20491;-82
2022/05/06 13:55:19;;;;;;;7.75;5.70;;;;;;;;;;10517398;28;20394;-83
2022/05/06 14:00:23;;;;;;;6.82;5.55;;;;;;;;;;10511257;28;20824;-82
2022/05/06 14:05:25;;;;;;;8.85;5.72;;;;;;;;;;10514058;28;20499;-83
2022/05/06 14:10:28;;;;;;;7.60;5.80;;;;;;;;;;10520859;28;20392;-82
2022/05/06 14:15:30;;;;;;;9.20;5.80;;;;;;;;;;10521377;28;20483;-82
2022/05/06 14:20:32;;;;;;;6.65;5.00;;;;;;;;;;10520555;28;20461;-82
2022/05/06 14:25:37;;;;;;;6.22;4.35;;;;;;;;;;10520611;28;20511;-82
2022/05/06 14:30:41;;;;;;;6.10;3.97;;;;;;;;;;10520170;28;20531;-82
2022/05/06 14:35:43;;;;;;;6.83;4.00;;;;;;;;;;10521220;28;20421;-82
2022/05/06 14:40:46;;;;;;;5.30;3.87;;;;;;;;;;10521077;28;20572;-82
2022/05/06 14:45:49;;;;;;;5.25;3.53;;;;;;;;;;10516640;28;21177;-82
2022/05/06 14:50:51;;;;;;;5.75;3.95;;;;;;;;;;10519966;28;20867;-82
2022/05/06 14:55:54;;;;;;;6.40;4.68;;;;;;;;;;10520522;28;20487;-82
2022/05/06 15:00:56;;;;;;;5.57;4.20;;;;;;;;;;10515162;28;20498;-82
2022/05/06 15:06:02;;;;;;;6.88;4.22;;;;;;;;;;10506671;28;20417;-83
2022/05/06 15:11:05;;;;;;;6.60;4.43;;;;;;;;;;10502425;28;20869;-83
2022/05/06 15:16:07;;;;;;;7.43;3.95;;;;;;;;;;10515759;28;20532;-83
2022/05/06 15:21:10;;;;;;;5.95;3.80;;;;;;;;;;10522506;28;20483;-83
2022/05/06 15:26:13;;;;;;;5.33;3.90;;;;;;;;;;10516375;28;20768;-82
2022/05/06 15:31:15;;;;;;;4.28;3.67;;;;;;;;;;10513161;28;20935;-82
2022/05/06 15:36:17;;;;;;;6.03;4.18;;;;;;;;;;10504582;28;20410;-81
2022/05/06 15:41:21;;;;;;;5.20;3.97;;;;;;;;;;10507556;28;20870;-81
2022/05/06 15:46:23;;;;;;;6.88;4.15;;;;;;;;;;10513922;28;20921;-81
2022/05/06 15:51:25;;;;;;;7.35;4.10;;;;;;;;;;10514047;28;20396;-82
2022/05/06 15:56:28;;;;;;;7.57;4.45;;;;;;;;;;10513184;28;20487;-82
2022/05/06 16:01:30;;;;;;;6.07;4.07;;;;;;;;;;10518060;28;20408;-80
2022/05/06 16:06:32;;;;;;;6.75;4.00;;;;;;;;;;10513013;28;20443;-81
2022/05/06 16:11:35;;;;;;;6.10;4.38;;;;;;;;;;10523910;28;20406;-81
2022/05/06 16:16:37;;;;;;;6.40;4.07;;;;;;;;;;10522348;28;20400;-80
2022/05/06 16:21:38;;;;;;;8.02;4.00;;;;;;;;;;10520300;28;20891;-81
2022/05/06 16:26:42;;;;;;;6.90;3.70;;;;;;;;;;10525992;28;20423;-81
2022/05/06 16:31:43;;;;;;;6.13;3.55;;;;;;;;;;10522038;28;20864;-80
2022/05/06 16:42:06;;;;;;;4.97;3.72;;;;;;;;;;10518278;28;20376;-81
2022/05/06 16:47:08;;;;;;;5.47;3.88;;;;;;;;;;10517439;28;20509;-80
2022/05/06 16:52:10;;;;;;;5.85;3.40;;;;;;;;;;10519359;28;20484;-78
2022/05/06 16:57:14;;;;;;;8.80;4.40;;;;;;;;;;10519464;28;20442;-81
2022/05/06 17:02:15;;;;;;;6.45;3.70;;;;;;;;;;10514210;28;20416;-82
2022/05/06 17:07:17;;;;;;;5.60;3.90;;;;;;;;;;10515457;28;20422;-83
2022/05/06 17:12:20;;;;;;;3.80;3.50;;;;;;;;;;10513396;28;20415;-83
2022/05/06 17:17:22;;;;;;;4.50;3.97;;;;;;;;;;10517451;28;20767;-81
2022/05/06 17:22:24;;;;;;;4.20;3.50;;;;;;;;;;10511235;28;20408;-82
2022/05/06 17:27:28;;;;;;;3.93;3.43;;;;;;;;;;10517790;28;20438;-81
2022/05/06 17:32:30;;;;;;;5.00;3.50;;;;;;;;;;10514557;28;20714;-80
2022/05/06 17:37:33;;;;;;;4.07;3.60;;;;;;;;;;10518529;28;20450;-81
2022/05/06 17:42:37;;;;;;;4.30;3.50;;;;;;;;;;10518137;28;21015;-80
2022/05/06 17:47:39;;;;;;;6.55;3.60;;;;;;;;;;10520569;28;20529;-80
2022/05/06 17:52:40;;;;;;;5.43;3.73;;;;;;;;;;10519749;28;20423;-81
2022/05/06 17:57:44;;;;;;;4.85;4.10;;;;;;;;;;10519066;28;20440;-80
2022/05/06 18:02:45;;;;;;;4.40;3.73;;;;;;;;;;10517963;28;20508;-80
2022/05/06 18:07:47;;;;;;;4.78;4.25;;;;;;;;;;10514501;28;20796;-82
2022/05/06 18:12:50;;;;;;;5.90;3.97;;;;;;;;;;10516679;28;20427;-82
2022/05/06 18:17:52;;;;;;;5.65;4.00;;;;;;;;;;10516370;28;20404;-75
2022/05/06 18:22:54;;;;;;;6.33;4.40;;;;;;;;;;10513454;28;20416;-82
2022/05/06 18:27:57;;;;;;;4.85;4.28;;;;;;;;;;10516131;28;20512;-81
2022/05/06 18:38:20;;;;;;;5.97;5.28;;;;;;;;;;10516463;22;20456;-84
2022/05/06 18:43:24;;;;;;;6.43;5.10;;;;;;;;;;10500445;28;20412;-83
2022/05/06 18:48:26;;;;;;;7.57;6.05;;;;;;;;;;10512125;28;20420;-81
2022/05/06 18:53:28;;;;;;;8.75;6.20;;;;;;;;;;10510799;28;20419;-82
2022/05/06 18:58:32;;;;;;;7.60;5.90;;;;;;;;;;10514107;28;20461;-83
2022/05/06 19:03:34;;;;;;;6.70;6.00;;;;;;;;;;10513757;28;20898;-81
2022/05/06 19:08:36;;;;;;;7.43;6.43;;;;;;;;;;10490111;28;20475;-81
2022/05/06 19:13:40;;;;;;;9.80;7.53;;;;;;;;;;10511334;28;20525;-82
2022/05/06 19:18:42;;;;;;;8.82;7.78;;;;;;;;;;10511281;28;20404;-83
2022/05/06 19:29:05;;;;;;;8.20;7.10;;;;;;;;;;10511921;28;21151;-82
2022/05/06 19:34:07;;;;;;;9.10;7.85;;;;;;;;;;10514382;28;20409;-82
2022/05/06 19:39:08;;;;;;;10.18;8.60;;;;;;;;;;10511126;28;20914;-82
2022/05/06 19:44:12;;;;;;;10.32;8.75;;;;;;;;;;10512780;28;20426;-82
2022/05/06 19:49:14;;;;;;;11.52;9.38;;;;;;;;;;10513758;28;20412;-83
2022/05/06 19:54:18;;;;;;;10.55;8.98;;;;;;;;;;10509322;28;20431;-81
2022/05/06 19:59:22;;;;;;;10.35;9.30;;;;;;;;;;10511659;28;20428;-81
2022/05/06 20:04:25;;;;;;;10.55;9.48;;;;;;;;;;10506857;28;20385;-84
2022/05/06 20:09:28;;;;;;;10.20;9.03;;;;;;;;;;10504081;28;20424;-83
2022/05/06 20:14:32;;;;;;;10.23;9.17;;;;;;;;;;10509780;28;20412;-84
2022/05/06 20:19:34;;;;;;;10.70;9.70;;;;;;;;;;10505769;28;20435;-83
2022/05/06 20:24:36;;;;;;;11.27;9.70;;;;;;;;;;10508473;28;20490;-83
2022/05/06 20:29:39;;;;;;;11.60;10.30;;;;;;;;;;10509238;28;20427;-84
2022/05/06 20:34:43;;;;;;;14.70;10.60;;;;;;;;;;10502818;28;20428;-84
2022/05/06 20:39:44;;;;;;;12.15;10.63;;;;;;;;;;10509997;28;20949;-84
2022/05/06 20:44:48;;;;;;;12.20;11.00;;;;;;;;;;10511259;28;20423;-84
2022/05/06 20:49:49;;;;;;;12.35;10.82;;;;;;;;;;10507190;28;21069;-82
2022/05/06 20:54:51;;;;;;;11.73;10.17;;;;;;;;;;10511865;28;21113;-82
2022/05/06 20:59:54;;;;;;;14.40;11.55;;;;;;;;;;10508701;28;20412;-83
2022/05/06 21:04:56;;;;;;;14.90;11.53;;;;;;;;;;10506381;28;20663;-82
2022/05/06 21:15:19;;;;;;;15.63;12.35;;;;;;;;;;10499817;28;20397;-82
2022/05/06 21:20:22;;;;;;;14.43;11.95;;;;;;;;;;10503551;28;20508;-83
2022/05/06 21:25:24;;;;;;;14.25;12.75;;;;;;;;;;10505800;28;20408;-83
2022/05/06 21:30:27;;;;;;;14.65;13.13;;;;;;;;;;10500536;28;20423;-82
2022/05/06 21:35:29;;;;;;;14.63;13.00;;;;;;;;;;10504164;28;20408;-82
2022/05/06 21:40:31;;;;;;;15.33;13.30;;;;;;;;;;10500795;28;20393;-82
2022/05/06 21:45:35;;;;;;;17.02;13.13;;;;;;;;;;10499342;28;20497;-82
2022/05/06 21:50:36;;;;;;;16.67;13.85;;;;;;;;;;10503312;28;20432;-83
2022/05/06 21:55:38;;;;;;;18.33;14.05;;;;;;;;;;10503777;28;21148;-82
2022/05/06 22:00:43;;;;;;;16.60;14.32;;;;;;;;;;10502431;28;20487;-82
2022/05/06 22:05:45;;;;;;;15.65;13.70;;;;;;;;;;10492142;28;20410;-82
2022/05/06 22:10:47;;;;;;;16.60;14.02;;;;;;;;;;10489491;28;20420;-82
2022/05/06 22:15:50;;;;;;;17.93;14.03;;;;;;;;;;10508563;28;20442;-82
2022/05/06 22:20:52;;;;;;;18.17;14.43;;;;;;;;;;10502615;28;20414;-82
2022/05/06 22:25:53;;;;;;;17.08;14.93;;;;;;;;;;10490145;28;20435;-82
2022/05/06 22:30:57;;;;;;;19.55;16.42;;;;;;;;;;10494911;28;20422;-82
2022/05/06 22:35:58;;;;;;;20.15;15.93;;;;;;;;;;10489225;28;20944;-82
2022/05/06 22:46:00;;;;;;;18.48;16.17;;;;;;;;;;10502384;28;20416;-81
2022/05/06 22:46:24;;;;;;;21.02;17.50;;;;;;;;;;10505252;28;20391;-81
2022/05/06 22:51:25;;;;;;;23.83;18.50;;;;;;;;;;10507009;28;20927;-82
2022/05/06 22:56:27;;;;;;;23.92;20.13;;;;;;;;;;10508476;28;20766;-82
2022/05/06 23:01:31;;;;;;;27.10;21.40;;;;;;;;;;10509254;28;20487;-82
2022/05/06 23:06:32;;;;;;;27.23;21.17;;;;;;;;;;10507506;28;20511;-81
2022/05/06 23:11:35;;;;;;;27.83;21.38;;;;;;;;;;10507219;28;20442;-82
2022/05/06 23:16:38;;;;;;;29.57;22.57;;;;;;;;;;10507549;28;20403;-82
2022/05/06 23:21:40;;;;;;;29.35;22.23;;;;;;;;;;10499608;28;20430;-82
2022/05/06 23:26:42;;;;;;;28.33;22.50;;;;;;;;;;10506827;28;20874;-82
2022/05/06 23:31:45;;;;;;;31.17;23.35;;;;;;;;;;10512111;28;20418;-82
2022/05/06 23:42:06;;;;;;;30.65;22.80;;;;;;;;;;10511504;28;20376;-82
2022/05/06 23:47:09;;;;;;;31.35;23.50;;;;;;;;;;10495478;28;20903;-82
2022/05/06 23:52:11;;;;;;;30.87;23.67;;;;;;;;;;10498035;28;20402;-82
2022/05/06 23:57:13;;;;;;;32.85;23.80;;;;;;;;;;10512445;28;20493;-82
